Latest Weather Observations for Mangalore

IDV60801

Issued at 1:31 pm EDT Saturday 13 February 2016 (issued every 30 minutes, with the page automatically refreshed every 10 minutes)

About weather observations | Map of weather stations | Latest weather observations for VIC | Other Formats
Station Details ID: 088109 Name: MANGALORE AIRPORT Lat: -36.89 Lon: 145.19 Height: 140.8 m
Data from the previous 72 hours. | See also: Recent months at Mangalore
Date/Time
EDT
Temp
°C
App
Temp
°C
Dew
Point
Rel
Hum
%
Delta-T
°C
Wind Press
QNH
hPa
Press
MSL
hPa
Rain
since 9 am
mm
Dir
 
Spd
km/h
Gust
km/h
Spd
kts
Gust
kts
13/01:30pm 33.2 30.3 11.1 26 13.0 N 17 28 9 15 1008.6 1008.1 0.0
13/01:00pm 32.3 29.0 10.9 27 12.5 N 19 26 10 14 1009.1 1008.6 0.0
13/12:30pm 29.7 27.0 10.3 30 11.1 N 15 20 8 11 1009.5 1009.0 0.0
13/12:00pm 31.1 28.3 9.9 27 12.1 N 15 20 8 11 1009.8 1009.3 0.0
13/11:30am 29.4 27.1 10.5 31 10.8 N 13 20 7 11 1010.5 1010.0 0.0
13/11:00am 28.4 26.4 11.5 35 9.8 NNE 13 19 7 10 1010.5 1010.0 0.0
13/10:30am 26.8 24.4 11.3 38 8.9 NNE 15 19 8 10 1010.8 1010.3 0.0
13/10:00am 25.5 23.5 12.7 45 7.5 NNE 15 19 8 10 1010.9 1010.4 0.0
13/09:30am 23.3 22.6 13.2 53 5.9 WSW 9 13 5 7 1011.1 1010.6 0.0
13/09:00am 20.0 19.5 12.7 63 4.1 SSW 7 9 4 5 1010.9 1010.4 0.0
13/08:30am 17.5 17.4 13.4 77 2.3 SSW 6 7 3 4 1011.4 1010.8 0.0
13/08:00am 15.6 15.7 13.8 89 1.0 SSW 6 11 3 6 1011.1 1010.6 0.0
13/07:30am 14.3 13.9 13.0 92 0.7 SSW 7 7 4 4 1010.7 1010.2 0.0
13/07:00am 13.7 13.7 12.4 92 0.7 SSW 4 7 2 4 1010.5 1010.0 0.0
13/06:30am 13.5 14.2 12.1 91 0.8 CALM 0 0 0 0 1010.1 1009.6 0.0
13/06:00am 12.4 12.0 11.0 91 0.7 SSW 4 7 2 4 1010.0 1009.5 0.0
13/05:30am 12.5 12.8 10.9 90 0.8 CALM 0 0 0 0 1009.8 1009.3 0.0
13/05:00am 13.4 14.0 11.8 90 0.9 CALM 0 0 0 0 1009.9 1009.4 0.0
13/04:30am 14.1 14.4 12.3 89 1.0 SSW 2 7 1 4 1010.0 1009.5 0.0
13/04:00am 14.6 15.1 12.8 89 1.0 SSW 2 7 1 4 1010.1 1009.6 0.0
13/03:30am 14.8 15.5 12.1 84 1.5 CALM 0 0 0 0 1010.1 1009.6 0.0
13/03:00am 15.3 16.1 12.4 83 1.6 CALM 0 0 0 0 1010.1 1009.6 0.0
13/02:30am 16.6 16.1 12.2 75 2.4 SSW 6 7 3 4 1010.3 1009.8 0.0
13/02:00am 18.4 18.2 13.7 74 2.7 SSW 7 9 4 5 1010.4 1009.9 0.0
13/01:30am 18.6 18.4 13.5 72 2.9 SSW 7 11 4 6 1010.6 1010.1 0.0
13/01:00am 19.4 18.7 13.3 68 3.5 SSW 9 13 5 7 1010.9 1010.4 0.0
13/12:30am 20.2 19.1 13.2 64 4.0 SSW 11 15 6 8 1010.9 1010.4 0.0
13/12:00am 20.9 19.8 13.1 61 4.5 SSW 11 17 6 9 1011.0 1010.5 0.0
 
Date/Time
EDT
Temp
°C
App
Temp
°C
Dew
Point
Rel
Hum
%
Delta-T
°C
Wind Press
QNH
hPa
Press
MSL
hPa
Rain
since 9 am
mm
Dir
 
Spd
km/h
Gust
km/h
Spd
kts
Gust
kts
12/11:30pm 21.5 20.3 12.9 58 4.9 SW 11 15 6 8 1011.2 1010.7 0.0
12/11:00pm 22.5 21.1 13.3 56 5.3 SSW 13 19 7 10 1011.4 1010.8 0.0
12/10:30pm 24.0 22.4 12.9 50 6.4 SSW 13 19 7 10 1011.6 1011.0 0.0
12/10:00pm 23.4 22.0 10.8 45 7.0 SSE 9 15 5 8 1011.4 1010.8 0.0
12/09:30pm 23.6 22.8 11.0 45 7.1 ENE 6 7 3 4 1011.1 1010.6 0.0
12/09:00pm 25.2 24.3 10.6 40 8.2 ENE 6 9 3 5 1010.9 1010.4 0.0
12/08:30pm 27.0 25.8 10.2 35 9.4 ENE 7 9 4 5 1010.8 1010.3 0.0
12/08:00pm 27.4 26.0 11.0 36 9.4 ENE 9 11 5 6 1010.7 1010.2 0.0
12/07:30pm 29.7 28.8 11.2 31 10.7 ENE 7 9 4 5 1010.6 1010.1 0.0
12/07:00pm 31.4 29.3 9.6 26 12.4 ENE 11 15 6 8 1010.5 1010.0 0.0
12/06:30pm 32.4 30.5 9.2 24 13.2 ESE 9 11 5 6 1010.6 1010.1 0.0
12/06:00pm 31.9 29.1 6.9 21 13.7 ENE 11 15 6 8 1010.7 1010.2 0.0
12/05:30pm 32.4 30.4 8.6 23 13.4 E 9 17 5 9 1011.0 1010.5 0.0
12/05:00pm 32.2 29.4 7.1 21 13.8 ESE 11 15 6 8 1011.0 1010.5 0.0
12/04:30pm 31.9 29.8 8.2 23 13.2 ENE 9 13 5 7 1011.4 1010.8 0.0
12/04:00pm 31.8 29.5 7.5 22 13.4 ENE 9 13 5 7 1011.8 1011.2 0.0
12/03:30pm 31.6 30.3 9.2 25 12.7 SSE 6 9 3 5 1012.2 1011.6 0.0
12/03:00pm 31.3 29.4 8.9 25 12.6 WNW 9 15 5 8 1012.7 1012.1 0.0
12/02:30pm 31.0 29.8 10.4 28 11.8 SSW 7 11 4 6 1013.1 1012.5 0.0
12/02:00pm 29.9 28.3 8.9 27 11.7 N 7 13 4 7 1013.6 1013.0 0.0
12/01:30pm 28.9 27.3 8.6 28 11.2 W 7 11 4 6 1013.9 1013.3 0.0
12/01:00pm 27.8 26.8 10.9 35 9.6 SW 7 11 4 6 1014.3 1013.8 0.0
12/12:30pm 27.0 26.6 12.3 40 8.6 W 6 11 3 6 1014.8 1014.3 0.0
12/12:00pm 25.5 25.7 13.0 46 7.3 SSW 4 9 2 5 1015.1 1014.6 0.0
12/11:30am 24.2 23.9 13.4 51 6.3 SSW 7 13 4 7 1015.3 1014.8 0.0
12/11:00am 22.7 21.4 13.7 56 5.3 SSW 13 17 7 9 1015.4 1014.9 0.0
12/10:30am 21.3 19.5 13.2 60 4.7 SSW 15 20 8 11 1015.7 1015.2 0.0
12/10:00am 20.3 18.1 13.3 64 4.0 SSW 17 22 9 12 1015.8 1015.3 0.0
12/09:30am 19.2 16.4 12.7 66 3.7 SSW 19 26 10 14 1015.9 1015.4 0.0
12/09:00am 18.4 16.8 12.8 70 3.2 SSW 13 20 7 11 1015.9 1015.4 0.0
12/08:30am 17.4 15.8 12.9 75 2.5 SSW 13 17 7 9 1016.1 1015.6 0.0
12/08:00am 15.9 14.5 12.3 79 2.0 SSW 11 15 6 8 1016.0 1015.5 0.0
12/07:30am 15.0 13.5 12.0 82 1.6 SSW 11 15 6 8 1015.8 1015.3 0.0
12/07:00am 14.1 13.3 11.8 86 1.2 SSW 7 11 4 6 1015.5 1015.0 0.0
12/06:30am 14.4 12.5 11.7 84 1.5 S 13 19 7 10 1015.0 1014.5 0.0
12/06:00am 14.5 12.3 12.0 85 1.4 S 15 20 8 11 1014.5 1014.0 0.0
12/05:30am 14.7 12.0 11.8 83 1.6 S 17 24 9 13 1014.2 1013.6 0.0
12/05:00am 14.8 12.9 11.9 83 1.6 S 13 19 7 10 1014.3 1013.8 0.0
12/04:30am 14.9 13.0 11.9 82 1.6 SSW 13 19 7 10 1014.4 1013.9 0.0
12/04:00am 15.1 13.2 11.9 81 1.7 SSW 13 17 7 9 1014.3 1013.8 0.0
12/03:30am 15.3 12.6 11.7 79 2.0 SSW 17 22 9 12 1014.5 1014.0 0.0
12/03:00am 15.5 13.9 11.5 77 2.2 S 11 17 6 9 1014.6 1014.1 0.0
12/02:30am 16.1 14.2 11.7 75 2.4 SSW 13 20 7 11 1014.7 1014.2 0.0
12/02:00am 16.5 13.8 11.6 73 2.7 SSW 17 24 9 13 1014.8 1014.3 0.0
12/01:30am 17.5 14.5 11.8 69 3.1 S 19 26 10 14 1015.1 1014.6 0.0
12/01:00am 17.8 14.6 11.8 68 3.3 S 20 28 11 15 1015.3 1014.8 0.0
12/12:30am 18.4 14.0 11.7 65 3.7 S 26 37 14 20 1015.6 1015.1 0.0
12/12:00am 18.7 15.1 12.0 65 3.7 S 22 33 12 18 1015.6 1015.1 0.0
 
Date/Time
EDT
Temp
°C
App
Temp
°C
Dew
Point
Rel
Hum
%
Delta-T
°C
Wind Press
QNH
hPa
Press
MSL
hPa
Rain
since 9 am
mm
Dir
 
Spd
km/h
Gust
km/h
Spd
kts
Gust
kts
11/11:30pm 18.8 16.3 12.3 66 3.6 S 17 24 9 13 1015.6 1015.1 0.0
11/11:00pm 19.0 16.4 13.2 69 3.3 SSW 19 28 10 15 1015.5 1015.0 0.0
11/10:30pm 19.3 17.1 13.3 68 3.4 SSW 17 24 9 13 1015.5 1015.0 0.0
11/10:00pm 20.9 17.7 13.1 61 4.5 S 22 33 12 18 1015.0 1014.5 0.0
11/09:30pm 20.4 18.2 13.4 64 4.0 SSW 17 22 9 12 1014.9 1014.4 0.0
11/09:00pm 21.4 18.2 13.1 59 4.8 SSW 22 30 12 16 1014.4 1013.9 0.0
11/08:30pm 22.6 19.3 12.8 54 5.6 SSW 22 33 12 18 1014.0 1013.4 0.0
11/08:00pm 24.0 21.0 12.6 49 6.6 SSW 20 30 11 16 1013.6 1013.0 0.0
11/07:30pm 26.3 22.8 10.9 38 8.7 S 20 32 11 17 1013.1 1012.5 0.0
11/07:00pm 26.7 23.5 12.0 40 8.5 SSW 20 30 11 16 1012.7 1012.1 0.0
11/06:30pm 27.5 23.4 11.5 37 9.2 SSW 24 33 13 18 1012.5 1011.9 0.0
11/06:00pm 28.2 22.8 10.9 34 9.9 SSW 30 39 16 21 1012.4 1011.8 0.0
11/05:30pm 29.1 25.1 10.3 31 10.7 SSW 22 33 12 18 1012.4 1011.8 0.0
11/05:00pm 29.8 25.4 10.4 30 11.1 SSW 24 33 13 18 1012.3 1011.7 0.0
11/04:30pm 29.8 26.0 9.9 29 11.3 SW 20 28 11 15 1012.4 1011.8 0.0
11/04:00pm 30.3 27.1 11.3 31 11.0 SW 19 24 10 13 1012.4 1011.8 0.0
11/03:30pm 29.8 27.1 11.8 33 10.5 SSW 17 22 9 12 1012.7 1012.1 0.0
11/03:00pm 29.7 26.8 12.2 34 10.3 SW 19 26 10 14 1012.9 1012.3 0.0
11/02:30pm 29.5 27.0 12.4 35 10.1 SW 17 24 9 13 1013.1 1012.5 0.0
11/02:00pm 28.6 26.5 12.5 37 9.5 SW 15 20 8 11 1013.5 1012.9 0.0
11/01:30pm 28.7 26.7 12.6 37 9.5 S 15 24 8 13 1013.6 1013.0 0.0
11/01:00pm 27.2 24.5 10.4 35 9.5 S 15 22 8 12 1013.9 1013.3 0.0
11/12:30pm 26.7 22.8 10.8 37 9.0 S 22 30 12 16 1014.4 1013.9 0.0
11/12:00pm 25.4 21.8 10.4 39 8.4 SSW 20 33 11 18 1014.9 1014.4 0.0
11/11:30am 24.8 20.2 9.5 38 8.4 S 24 33 13 18 1015.2 1014.7 0.0
11/11:00am 24.2 20.5 11.5 45 7.2 S 22 30 12 16 1015.2 1014.7 0.0
11/10:30am 22.3 18.3 11.7 51 6.0 S 24 32 13 17 1015.3 1014.8 0.0
11/10:00am 21.3 16.1 11.6 54 5.4 S 30 37 16 20 1015.4 1014.9 0.0
11/09:30am 20.5 16.2 12.0 58 4.8 S 26 37 14 20 1015.3 1014.8 0.0
11/09:00am 19.6 15.5 12.6 64 4.0 S 26 37 14 20 1015.3 1014.8 0.0
11/08:30am 18.2 13.6 12.2 68 3.3 S 28 39 15 21 1015.0 1014.5 0.0
11/08:00am 17.1 12.8 12.0 72 2.8 S 26 41 14 22 1014.8 1014.3 0.0
11/07:30am 16.4 11.7 12.0 75 2.4 S 28 39 15 21 1014.5 1014.0 0.0
11/07:00am 15.9 11.9 11.9 77 2.2 S 24 33 13 18 1014.1 1013.5 0.0
11/06:30am 15.9 11.2 11.9 77 2.2 S 28 35 15 19 1013.8 1013.2 0.0
11/06:00am 16.0 11.9 11.6 75 2.4 S 24 32 13 17 1013.4 1012.8 0.0
11/05:30am 16.0 12.7 11.6 75 2.4 S 20 28 11 15 1013.3 1012.7 0.0
11/05:00am 16.0 12.9 11.6 75 2.4 S 19 26 10 14 1013.2 1012.6 0.0
11/04:30am 15.7 13.0 11.7 77 2.2 SSW 17 22 9 12 1013.2 1012.6 0.0
11/04:00am 15.7 13.0 11.7 77 2.2 SSW 17 24 9 13 1013.1 1012.5 0.0
11/03:30am 15.7 13.1 12.1 79 2.0 SSW 17 22 9 12 1013.2 1012.6 0.0
11/03:00am 15.9 13.3 11.9 77 2.2 SSW 17 26 9 14 1013.5 1012.9 0.0
11/02:30am 16.2 13.1 11.6 74 2.5 SSW 19 26 10 14 1013.7 1013.1 0.0
11/02:00am 16.7 13.5 11.8 73 2.7 SSW 20 28 11 15 1013.9 1013.3 0.0
11/01:30am 17.0 14.5 12.3 74 2.6 SSW 17 24 9 13 1014.1 1013.5 0.0
11/01:00am 17.0 14.6 12.7 76 2.4 S 17 24 9 13 1014.2 1013.6 0.0
11/12:30am 17.5 14.8 13.0 75 2.5 SSW 19 26 10 14 1014.2 1013.6 0.0
11/12:00am 17.8 14.9 12.9 73 2.8 SSW 20 30 11 16 1014.1 1013.5 0.0
 
Date/Time
EDT
Temp
°C
App
Temp
°C
Dew
Point
Rel
Hum
%
Delta-T
°C
Wind Press
QNH
hPa
Press
MSL
hPa
Rain
since 9 am
mm
Dir
 
Spd
km/h
Gust
km/h
Spd
kts
Gust
kts
10/11:30pm 18.4 15.5 12.4 68 3.4 SSW 19 28 10 15 1014.2 1013.6 0.0
10/11:00pm 19.7 16.4 11.7 60 4.4 SSW 20 28 11 15 1014.1 1013.5 0.0
10/10:30pm 21.5 18.2 11.5 53 5.6 SSW 20 30 11 16 1013.9 1013.3 0.0
10/10:00pm 22.6 18.9 10.1 45 6.9 S 20 28 11 15 1013.8 1013.2 0.0
10/09:30pm 23.6 19.4 9.9 42 7.5 S 22 30 12 16 1013.6 1013.0 0.0
10/09:00pm 23.5 21.1 9.9 42 7.5 S 13 22 7 12 1013.4 1012.8 0.0
10/08:30pm 24.6 21.3 8.1 35 8.8 S 15 20 8 11 1013.1 1012.5 0.0
10/08:00pm 25.6 22.3 11.0 40 8.3 S 19 24 10 13 1012.8 1012.2 0.0
10/07:30pm 26.0 22.5 10.2 37 8.8 S 19 30 10 16 1012.6 1012.0 0.0
10/07:00pm 27.0 23.2 9.8 34 9.6 SSW 20 28 11 15 1012.4 1011.8 0.0
10/06:30pm 27.7 23.8 10.9 35 9.6 SSW 22 32 12 17 1012.0 1011.4 0.0
10/06:00pm 29.5 25.4 8.5 27 11.6 SSW 20 30 11 16 1011.8 1011.2 0.0
10/05:30pm 30.4 25.6 5.6 21 13.1 SSW 20 30 11 16 1011.6 1011.0 0.0
10/05:00pm 30.8 26.6 7.3 23 12.8 SW 19 28 10 15 1011.6 1011.0 0.0
10/04:30pm 30.2 26.1 6.1 22 12.9 SW 17 24 9 13 1011.7 1011.1 0.0
10/04:00pm 30.6 25.8 4.4 19 13.6 SSW 19 26 10 14 1011.9 1011.3 0.0
10/03:30pm 30.2 24.8 2.5 17 13.9 SSW 20 28 11 15 1012.2 1011.6 0.0
10/03:00pm 29.9 25.6 7.8 25 12.1 SSW 20 28 11 15 1012.5 1011.9 0.0
10/02:30pm 29.3 26.2 10.4 31 10.8 SSW 17 28 9 15 1012.8 1012.2 0.0
10/02:00pm 28.6 25.9 10.3 32 10.4 SSW 15 22 8 12 1013.1 1012.5 0.0

Other Formats:

Comma delimited format used in spreadsheet applications
http://www.bom.gov.au/fwo/IDV60801/IDV60801.94874.axf

JavaScript Object Notation format (JSON) in row-major order
http://www.bom.gov.au/fwo/IDV60801/IDV60801.94874.json